sensor_id;sensor_type;location;lat;lon;timestamp;P1;durP1;ratioP1;P2;durP2;ratioP2
17414;SDS011;8825;48.086;16.426;2024-03-06T00:01:46;38.00;;;35.10;;
17414;SDS011;8825;48.086;16.426;2024-03-06T00:04:13;35.80;;;32.87;;
17414;SDS011;8825;48.086;16.426;2024-03-06T00:06:41;35.67;;;32.37;;
17414;SDS011;8825;48.086;16.426;2024-03-06T00:09:09;33.97;;;31.07;;
17414;SDS011;8825;48.086;16.426;2024-03-06T00:11:37;39.30;;;36.10;;
17414;SDS011;8825;48.086;16.426;2024-03-06T00:14:06;38.47;;;35.63;;
17414;SDS011;8825;48.086;16.426;2024-03-06T00:16:33;40.43;;;37.23;;
17414;SDS011;8825;48.086;16.426;2024-03-06T00:19:01;38.53;;;34.90;;
17414;SDS011;8825;48.086;16.426;2024-03-06T00:21:28;39.23;;;35.83;;
17414;SDS011;8825;48.086;16.426;2024-03-06T00:23:56;38.63;;;35.40;;
17414;SDS011;8825;48.086;16.426;2024-03-06T00:26:23;54.63;;;50.67;;
17414;SDS011;8825;48.086;16.426;2024-03-06T00:28:51;62.40;;;58.27;;
17414;SDS011;8825;48.086;16.426;2024-03-06T00:31:18;69.33;;;64.97;;
17414;SDS011;8825;48.086;16.426;2024-03-06T00:33:46;74.27;;;69.47;;
17414;SDS011;8825;48.086;16.426;2024-03-06T00:36:13;40.57;;;37.23;;
17414;SDS011;8825;48.086;16.426;2024-03-06T00:38:41;59.03;;;55.23;;
17414;SDS011;8825;48.086;16.426;2024-03-06T00:41:09;64.57;;;60.27;;
17414;SDS011;8825;48.086;16.426;2024-03-06T00:43:37;69.17;;;64.80;;
17414;SDS011;8825;48.086;16.426;2024-03-06T00:46:04;65.53;;;61.37;;
17414;SDS011;8825;48.086;16.426;2024-03-06T00:48:32;66.53;;;62.07;;
17414;SDS011;8825;48.086;16.426;2024-03-06T00:51:00;64.33;;;60.13;;
17414;SDS011;8825;48.086;16.426;2024-03-06T00:53:28;65.30;;;61.23;;
17414;SDS011;8825;48.086;16.426;2024-03-06T00:55:55;67.87;;;63.47;;
17414;SDS011;8825;48.086;16.426;2024-03-06T00:58:23;68.23;;;63.67;;
17414;SDS011;8825;48.086;16.426;2024-03-06T01:00:50;68.10;;;63.60;;
17414;SDS011;8825;48.086;16.426;2024-03-06T01:03:18;57.80;;;54.00;;
17414;SDS011;8825;48.086;16.426;2024-03-06T01:05:45;48.07;;;44.53;;
17414;SDS011;8825;48.086;16.426;2024-03-06T01:08:13;45.60;;;42.13;;
17414;SDS011;8825;48.086;16.426;2024-03-06T01:10:42;43.23;;;39.87;;
17414;SDS011;8825;48.086;16.426;2024-03-06T01:13:10;37.60;;;34.20;;
17414;SDS011;8825;48.086;16.426;2024-03-06T01:15:38;39.63;;;36.23;;
17414;SDS011;8825;48.086;16.426;2024-03-06T01:18:05;39.63;;;36.30;;
17414;SDS011;8825;48.086;16.426;2024-03-06T01:20:33;42.47;;;39.07;;
17414;SDS011;8825;48.086;16.426;2024-03-06T01:23:01;42.33;;;38.63;;
17414;SDS011;8825;48.086;16.426;2024-03-06T01:25:29;44.13;;;40.33;;
17414;SDS011;8825;48.086;16.426;2024-03-06T01:27:57;44.67;;;41.00;;
17414;SDS011;8825;48.086;16.426;2024-03-06T01:30:24;41.50;;;37.90;;
17414;SDS011;8825;48.086;16.426;2024-03-06T01:32:52;48.47;;;44.47;;
17414;SDS011;8825;48.086;16.426;2024-03-06T01:35:20;49.80;;;45.60;;
17414;SDS011;8825;48.086;16.426;2024-03-06T01:37:47;50.13;;;46.17;;
17414;SDS011;8825;48.086;16.426;2024-03-06T01:40:15;56.70;;;52.33;;
17414;SDS011;8825;48.086;16.426;2024-03-06T01:42:42;58.70;;;54.47;;
17414;SDS011;8825;48.086;16.426;2024-03-06T01:45:10;66.40;;;61.67;;
17414;SDS011;8825;48.086;16.426;2024-03-06T01:47:37;63.67;;;58.80;;
17414;SDS011;8825;48.086;16.426;2024-03-06T01:50:06;67.10;;;62.17;;
17414;SDS011;8825;48.086;16.426;2024-03-06T01:52:35;70.27;;;64.97;;
17414;SDS011;8825;48.086;16.426;2024-03-06T01:55:03;57.10;;;52.33;;
17414;SDS011;8825;48.086;16.426;2024-03-06T01:57:32;50.93;;;46.30;;
17414;SDS011;8825;48.086;16.426;2024-03-06T02:00:02;48.03;;;43.83;;
17414;SDS011;8825;48.086;16.426;2024-03-06T02:02:30;51.47;;;47.07;;
17414;SDS011;8825;48.086;16.426;2024-03-06T02:04:58;53.13;;;48.53;;
17414;SDS011;8825;48.086;16.426;2024-03-06T02:07:26;53.93;;;49.47;;
17414;SDS011;8825;48.086;16.426;2024-03-06T02:09:55;54.57;;;49.87;;
17414;SDS011;8825;48.086;16.426;2024-03-06T02:12:23;58.63;;;53.47;;
17414;SDS011;8825;48.086;16.426;2024-03-06T02:14:51;59.23;;;54.50;;
17414;SDS011;8825;48.086;16.426;2024-03-06T02:17:18;58.27;;;53.30;;
17414;SDS011;8825;48.086;16.426;2024-03-06T02:19:46;61.20;;;55.90;;
17414;SDS011;8825;48.086;16.426;2024-03-06T02:22:13;56.47;;;51.43;;
17414;SDS011;8825;48.086;16.426;2024-03-06T02:24:44;55.27;;;50.37;;
17414;SDS011;8825;48.086;16.426;2024-03-06T02:27:10;57.50;;;52.60;;
17414;SDS011;8825;48.086;16.426;2024-03-06T02:29:38;60.70;;;55.77;;
17414;SDS011;8825;48.086;16.426;2024-03-06T02:32:06;60.30;;;55.00;;
17414;SDS011;8825;48.086;16.426;2024-03-06T02:34:34;59.73;;;54.23;;
17414;SDS011;8825;48.086;16.426;2024-03-06T02:37:01;58.63;;;53.23;;
17414;SDS011;8825;48.086;16.426;2024-03-06T02:39:29;57.17;;;51.73;;
17414;SDS011;8825;48.086;16.426;2024-03-06T02:41:56;59.00;;;53.57;;
17414;SDS011;8825;48.086;16.426;2024-03-06T02:44:24;60.30;;;54.87;;
17414;SDS011;8825;48.086;16.426;2024-03-06T02:46:51;64.67;;;58.90;;
17414;SDS011;8825;48.086;16.426;2024-03-06T02:49:19;57.53;;;52.37;;
17414;SDS011;8825;48.086;16.426;2024-03-06T02:51:46;64.57;;;58.87;;
17414;SDS011;8825;48.086;16.426;2024-03-06T02:54:14;64.47;;;58.93;;
17414;SDS011;8825;48.086;16.426;2024-03-06T02:56:41;63.70;;;57.87;;
17414;SDS011;8825;48.086;16.426;2024-03-06T02:59:09;61.67;;;55.90;;
17414;SDS011;8825;48.086;16.426;2024-03-06T03:01:36;57.90;;;52.63;;
17414;SDS011;8825;48.086;16.426;2024-03-06T03:04:04;56.33;;;51.23;;
17414;SDS011;8825;48.086;16.426;2024-03-06T03:06:33;57.57;;;52.13;;
17414;SDS011;8825;48.086;16.426;2024-03-06T03:09:00;56.07;;;50.73;;
17414;SDS011;8825;48.086;16.426;2024-03-06T03:11:29;53.43;;;48.47;;
17414;SDS011;8825;48.086;16.426;2024-03-06T03:13:58;55.87;;;50.60;;
17414;SDS011;8825;48.086;16.426;2024-03-06T03:16:25;53.50;;;48.20;;
17414;SDS011;8825;48.086;16.426;2024-03-06T03:18:53;53.53;;;48.47;;
17414;SDS011;8825;48.086;16.426;2024-03-06T03:21:20;55.73;;;50.37;;
17414;SDS011;8825;48.086;16.426;2024-03-06T03:23:48;61.53;;;56.03;;
17414;SDS011;8825;48.086;16.426;2024-03-06T03:26:16;70.43;;;64.60;;
17414;SDS011;8825;48.086;16.426;2024-03-06T03:28:43;66.40;;;60.60;;
17414;SDS011;8825;48.086;16.426;2024-03-06T03:31:10;65.13;;;59.37;;
17414;SDS011;8825;48.086;16.426;2024-03-06T03:33:41;76.63;;;70.13;;
17414;SDS011;8825;48.086;16.426;2024-03-06T03:36:08;70.90;;;65.07;;
17414;SDS011;8825;48.086;16.426;2024-03-06T03:38:39;72.33;;;66.23;;
17414;SDS011;8825;48.086;16.426;2024-03-06T03:41:07;63.70;;;57.93;;
17414;SDS011;8825;48.086;16.426;2024-03-06T03:43:35;70.47;;;64.00;;
17414;SDS011;8825;48.086;16.426;2024-03-06T03:46:05;68.37;;;61.87;;
17414;SDS011;8825;48.086;16.426;2024-03-06T03:48:32;75.10;;;67.70;;
17414;SDS011;8825;48.086;16.426;2024-03-06T03:51:02;67.10;;;60.93;;
17414;SDS011;8825;48.086;16.426;2024-03-06T03:53:33;82.23;;;75.60;;
17414;SDS011;8825;48.086;16.426;2024-03-06T03:56:01;78.23;;;71.37;;
17414;SDS011;8825;48.086;16.426;2024-03-06T03:58:29;81.13;;;74.03;;
17414;SDS011;8825;48.086;16.426;2024-03-06T04:00:56;75.27;;;68.47;;
17414;SDS011;8825;48.086;16.426;2024-03-06T04:03:24;73.47;;;66.63;;
17414;SDS011;8825;48.086;16.426;2024-03-06T04:05:52;77.00;;;70.00;;
17414;SDS011;8825;48.086;16.426;2024-03-06T04:08:19;81.20;;;73.97;;
17414;SDS011;8825;48.086;16.426;2024-03-06T04:10:47;72.97;;;66.17;;
17414;SDS011;8825;48.086;16.426;2024-03-06T04:13:15;80.30;;;73.07;;
17414;SDS011;8825;48.086;16.426;2024-03-06T04:15:44;79.37;;;72.47;;
17414;SDS011;8825;48.086;16.426;2024-03-06T04:18:12;76.80;;;70.20;;
17414;SDS011;8825;48.086;16.426;2024-03-06T04:20:39;77.83;;;70.70;;
17414;SDS011;8825;48.086;16.426;2024-03-06T04:23:07;72.60;;;65.67;;
17414;SDS011;8825;48.086;16.426;2024-03-06T04:25:34;88.97;;;81.63;;
17414;SDS011;8825;48.086;16.426;2024-03-06T04:28:03;81.87;;;74.80;;
17414;SDS011;8825;48.086;16.426;2024-03-06T04:30:32;74.77;;;68.27;;
17414;SDS011;8825;48.086;16.426;2024-03-06T04:33:00;70.80;;;64.30;;
17414;SDS011;8825;48.086;16.426;2024-03-06T04:35:28;71.00;;;64.33;;
17414;SDS011;8825;48.086;16.426;2024-03-06T04:37:55;82.80;;;75.43;;
17414;SDS011;8825;48.086;16.426;2024-03-06T04:40:23;73.80;;;67.07;;
17414;SDS011;8825;48.086;16.426;2024-03-06T04:42:51;82.23;;;75.17;;
17414;SDS011;8825;48.086;16.426;2024-03-06T04:45:18;74.33;;;67.40;;
17414;SDS011;8825;48.086;16.426;2024-03-06T04:47:46;72.67;;;66.17;;
17414;SDS011;8825;48.086;16.426;2024-03-06T04:50:13;75.07;;;68.57;;
17414;SDS011;8825;48.086;16.426;2024-03-06T04:52:42;90.23;;;82.87;;
17414;SDS011;8825;48.086;16.426;2024-03-06T04:55:11;80.40;;;73.10;;
17414;SDS011;8825;48.086;16.426;2024-03-06T04:57:42;77.10;;;70.40;;
17414;SDS011;8825;48.086;16.426;2024-03-06T05:00:10;78.57;;;71.50;;
17414;SDS011;8825;48.086;16.426;2024-03-06T05:02:38;68.77;;;62.43;;
17414;SDS011;8825;48.086;16.426;2024-03-06T05:05:07;67.47;;;61.37;;
17414;SDS011;8825;48.086;16.426;2024-03-06T05:07:35;68.43;;;62.33;;
17414;SDS011;8825;48.086;16.426;2024-03-06T05:10:02;88.77;;;81.83;;
17414;SDS011;8825;48.086;16.426;2024-03-06T05:12:32;100.97;;;93.43;;
17414;SDS011;8825;48.086;16.426;2024-03-06T05:15:00;95.70;;;88.53;;
17414;SDS011;8825;48.086;16.426;2024-03-06T05:17:28;84.07;;;76.83;;
17414;SDS011;8825;48.086;16.426;2024-03-06T05:19:56;88.57;;;81.17;;
17414;SDS011;8825;48.086;16.426;2024-03-06T05:22:23;87.13;;;80.10;;
17414;SDS011;8825;48.086;16.426;2024-03-06T05:24:52;103.20;;;95.70;;
17414;SDS011;8825;48.086;16.426;2024-03-06T05:27:21;100.53;;;92.80;;
17414;SDS011;8825;48.086;16.426;2024-03-06T05:29:48;106.00;;;98.47;;
17414;SDS011;8825;48.086;16.426;2024-03-06T05:32:16;97.43;;;90.20;;
17414;SDS011;8825;48.086;16.426;2024-03-06T05:34:43;88.77;;;81.57;;
17414;SDS011;8825;48.086;16.426;2024-03-06T05:37:11;98.30;;;91.13;;
17414;SDS011;8825;48.086;16.426;2024-03-06T05:39:38;78.77;;;72.27;;
17414;SDS011;8825;48.086;16.426;2024-03-06T05:42:08;100.83;;;93.37;;
17414;SDS011;8825;48.086;16.426;2024-03-06T05:44:35;86.03;;;79.10;;
17414;SDS011;8825;48.086;16.426;2024-03-06T05:47:03;110.43;;;102.57;;
17414;SDS011;8825;48.086;16.426;2024-03-06T05:49:32;99.17;;;92.00;;
17414;SDS011;8825;48.086;16.426;2024-03-06T05:52:00;81.00;;;74.43;;
17414;SDS011;8825;48.086;16.426;2024-03-06T05:54:28;70.30;;;64.13;;
17414;SDS011;8825;48.086;16.426;2024-03-06T05:56:57;78.57;;;72.10;;
17414;SDS011;8825;48.086;16.426;2024-03-06T05:59:25;73.10;;;66.47;;
17414;SDS011;8825;48.086;16.426;2024-03-06T06:01:54;75.97;;;69.77;;
17414;SDS011;8825;48.086;16.426;2024-03-06T06:04:22;103.70;;;96.33;;
17414;SDS011;8825;48.086;16.426;2024-03-06T06:06:49;93.87;;;87.07;;
17414;SDS011;8825;48.086;16.426;2024-03-06T06:09:17;119.60;;;111.47;;
17414;SDS011;8825;48.086;16.426;2024-03-06T06:11:45;117.53;;;109.53;;
17414;SDS011;8825;48.086;16.426;2024-03-06T06:14:13;83.87;;;77.33;;
17414;SDS011;8825;48.086;16.426;2024-03-06T06:16:41;99.50;;;92.33;;
17414;SDS011;8825;48.086;16.426;2024-03-06T06:19:09;88.70;;;81.90;;
17414;SDS011;8825;48.086;16.426;2024-03-06T06:21:36;88.43;;;81.63;;
17414;SDS011;8825;48.086;16.426;2024-03-06T06:24:04;77.97;;;71.50;;
17414;SDS011;8825;48.086;16.426;2024-03-06T06:26:32;78.77;;;72.10;;
17414;SDS011;8825;48.086;16.426;2024-03-06T06:29:00;79.03;;;72.53;;
17414;SDS011;8825;48.086;16.426;2024-03-06T06:31:28;78.83;;;72.87;;
17414;SDS011;8825;48.086;16.426;2024-03-06T06:33:55;86.27;;;79.60;;
17414;SDS011;8825;48.086;16.426;2024-03-06T06:36:23;69.10;;;63.13;;
17414;SDS011;8825;48.086;16.426;2024-03-06T06:38:50;77.00;;;70.70;;
17414;SDS011;8825;48.086;16.426;2024-03-06T06:41:18;62.57;;;57.17;;
17414;SDS011;8825;48.086;16.426;2024-03-06T06:43:45;65.83;;;60.23;;
17414;SDS011;8825;48.086;16.426;2024-03-06T06:46:13;51.77;;;47.03;;
17414;SDS011;8825;48.086;16.426;2024-03-06T06:48:42;61.70;;;56.07;;
17414;SDS011;8825;48.086;16.426;2024-03-06T06:51:09;59.50;;;54.27;;
17414;SDS011;8825;48.086;16.426;2024-03-06T06:53:39;59.03;;;53.50;;
17414;SDS011;8825;48.086;16.426;2024-03-06T06:56:08;60.47;;;55.07;;
17414;SDS011;8825;48.086;16.426;2024-03-06T06:58:35;53.97;;;48.77;;
17414;SDS011;8825;48.086;16.426;2024-03-06T07:01:03;51.57;;;46.67;;
17414;SDS011;8825;48.086;16.426;2024-03-06T07:03:31;49.00;;;44.33;;
17414;SDS011;8825;48.086;16.426;2024-03-06T07:05:58;49.53;;;44.73;;
17414;SDS011;8825;48.086;16.426;2024-03-06T07:08:26;46.77;;;41.90;;
17414;SDS011;8825;48.086;16.426;2024-03-06T07:10:53;46.97;;;42.37;;
17414;SDS011;8825;48.086;16.426;2024-03-06T07:13:21;43.43;;;39.23;;
17414;SDS011;8825;48.086;16.426;2024-03-06T07:15:48;47.07;;;42.50;;
17414;SDS011;8825;48.086;16.426;2024-03-06T07:18:16;55.17;;;50.67;;
17414;SDS011;8825;48.086;16.426;2024-03-06T07:20:44;47.80;;;43.77;;
17414;SDS011;8825;48.086;16.426;2024-03-06T07:23:13;49.70;;;44.93;;
17414;SDS011;8825;48.086;16.426;2024-03-06T07:25:40;46.57;;;42.30;;
17414;SDS011;8825;48.086;16.426;2024-03-06T07:28:08;47.00;;;42.83;;
17414;SDS011;8825;48.086;16.426;2024-03-06T07:30:35;48.63;;;44.47;;
17414;SDS011;8825;48.086;16.426;2024-03-06T07:33:03;48.77;;;44.33;;
17414;SDS011;8825;48.086;16.426;2024-03-06T07:35:30;55.93;;;51.43;;
17414;SDS011;8825;48.086;16.426;2024-03-06T07:37:58;65.00;;;59.67;;
17414;SDS011;8825;48.086;16.426;2024-03-06T07:40:25;69.23;;;64.17;;
17414;SDS011;8825;48.086;16.426;2024-03-06T07:42:53;52.73;;;48.13;;
17414;SDS011;8825;48.086;16.426;2024-03-06T07:45:21;48.67;;;44.40;;
17414;SDS011;8825;48.086;16.426;2024-03-06T07:47:49;50.53;;;45.93;;
17414;SDS011;8825;48.086;16.426;2024-03-06T07:50:16;44.63;;;40.33;;
17414;SDS011;8825;48.086;16.426;2024-03-06T07:52:45;49.87;;;45.47;;
17414;SDS011;8825;48.086;16.426;2024-03-06T07:55:13;53.03;;;48.60;;
17414;SDS011;8825;48.086;16.426;2024-03-06T07:57:41;59.27;;;54.37;;
17414;SDS011;8825;48.086;16.426;2024-03-06T08:00:09;56.77;;;52.07;;
17414;SDS011;8825;48.086;16.426;2024-03-06T08:02:44;61.60;;;56.80;;
17414;SDS011;8825;48.086;16.426;2024-03-06T08:05:18;51.13;;;46.93;;
17414;SDS011;8825;48.086;16.426;2024-03-06T08:07:47;55.07;;;50.60;;
17414;SDS011;8825;48.086;16.426;2024-03-06T08:10:14;53.00;;;48.33;;
17414;SDS011;8825;48.086;16.426;2024-03-06T08:12:44;52.10;;;47.77;;
17414;SDS011;8825;48.086;16.426;2024-03-06T08:15:15;47.90;;;43.93;;
17414;SDS011;8825;48.086;16.426;2024-03-06T08:17:43;83.13;;;77.63;;
17414;SDS011;8825;48.086;16.426;2024-03-06T08:20:11;80.13;;;74.83;;
17414;SDS011;8825;48.086;16.426;2024-03-06T08:22:42;66.17;;;61.00;;
17414;SDS011;8825;48.086;16.426;2024-03-06T08:25:10;75.00;;;69.37;;
17414;SDS011;8825;48.086;16.426;2024-03-06T08:27:39;69.57;;;64.50;;
17414;SDS011;8825;48.086;16.426;2024-03-06T08:30:08;62.93;;;58.37;;
17414;SDS011;8825;48.086;16.426;2024-03-06T08:32:36;68.33;;;63.40;;
17414;SDS011;8825;48.086;16.426;2024-03-06T08:35:04;81.00;;;75.53;;
17414;SDS011;8825;48.086;16.426;2024-03-06T08:37:33;81.87;;;76.50;;
17414;SDS011;8825;48.086;16.426;2024-03-06T08:40:00;93.47;;;87.57;;
17414;SDS011;8825;48.086;16.426;2024-03-06T08:42:28;73.33;;;68.43;;
17414;SDS011;8825;48.086;16.426;2024-03-06T08:44:56;76.77;;;71.40;;
17414;SDS011;8825;48.086;16.426;2024-03-06T08:47:24;72.83;;;67.70;;
17414;SDS011;8825;48.086;16.426;2024-03-06T08:49:51;51.13;;;46.93;;
17414;SDS011;8825;48.086;16.426;2024-03-06T08:52:19;68.63;;;63.80;;
17414;SDS011;8825;48.086;16.426;2024-03-06T08:54:47;72.87;;;67.67;;
17414;SDS011;8825;48.086;16.426;2024-03-06T08:57:14;109.10;;;102.87;;
17414;SDS011;8825;48.086;16.426;2024-03-06T08:59:42;60.57;;;56.23;;
17414;SDS011;8825;48.086;16.426;2024-03-06T09:02:17;56.27;;;52.07;;
17414;SDS011;8825;48.086;16.426;2024-03-06T09:04:45;93.90;;;88.03;;
17414;SDS011;8825;48.086;16.426;2024-03-06T09:07:13;72.27;;;67.23;;
17414;SDS011;8825;48.086;16.426;2024-03-06T09:09:41;66.13;;;61.47;;
17414;SDS011;8825;48.086;16.426;2024-03-06T09:12:09;78.33;;;73.33;;
17414;SDS011;8825;48.086;16.426;2024-03-06T09:14:38;78.57;;;73.20;;
17414;SDS011;8825;48.086;16.426;2024-03-06T09:17:07;86.20;;;80.70;;
17414;SDS011;8825;48.086;16.426;2024-03-06T09:19:41;61.83;;;57.20;;
17414;SDS011;8825;48.086;16.426;2024-03-06T09:22:08;70.80;;;65.93;;
17414;SDS011;8825;48.086;16.426;2024-03-06T09:24:36;61.90;;;57.07;;
17414;SDS011;8825;48.086;16.426;2024-03-06T09:27:06;61.53;;;56.87;;
17414;SDS011;8825;48.086;16.426;2024-03-06T09:29:34;59.10;;;54.50;;
17414;SDS011;8825;48.086;16.426;2024-03-06T09:32:01;65.80;;;61.00;;
17414;SDS011;8825;48.086;16.426;2024-03-06T09:34:29;57.30;;;52.90;;
17414;SDS011;8825;48.086;16.426;2024-03-06T09:36:56;45.00;;;41.10;;
17414;SDS011;8825;48.086;16.426;2024-03-06T09:39:25;47.53;;;43.53;;
17414;SDS011;8825;48.086;16.426;2024-03-06T09:41:57;54.17;;;50.10;;
17414;SDS011;8825;48.086;16.426;2024-03-06T09:44:22;50.13;;;45.93;;
17414;SDS011;8825;48.086;16.426;2024-03-06T09:46:50;76.90;;;72.30;;
17414;SDS011;8825;48.086;16.426;2024-03-06T09:49:18;62.33;;;58.13;;
17414;SDS011;8825;48.086;16.426;2024-03-06T09:51:46;49.47;;;45.40;;
17414;SDS011;8825;48.086;16.426;2024-03-06T09:54:16;46.30;;;42.57;;
17414;SDS011;8825;48.086;16.426;2024-03-06T09:56:44;44.47;;;40.50;;
17414;SDS011;8825;48.086;16.426;2024-03-06T09:59:12;46.03;;;42.47;;
17414;SDS011;8825;48.086;16.426;2024-03-06T10:01:53;54.77;;;51.07;;
17414;SDS011;8825;48.086;16.426;2024-03-06T10:04:24;54.77;;;50.83;;
17414;SDS011;8825;48.086;16.426;2024-03-06T10:06:56;38.83;;;35.37;;
17414;SDS011;8825;48.086;16.426;2024-03-06T10:09:25;45.67;;;42.27;;
17414;SDS011;8825;48.086;16.426;2024-03-06T10:11:55;52.43;;;48.57;;
17414;SDS011;8825;48.086;16.426;2024-03-06T10:14:22;65.37;;;60.93;;
17414;SDS011;8825;48.086;16.426;2024-03-06T10:16:53;72.50;;;67.87;;
17414;SDS011;8825;48.086;16.426;2024-03-06T10:19:26;123.10;;;116.50;;
17414;SDS011;8825;48.086;16.426;2024-03-06T10:21:55;120.57;;;114.27;;
17414;SDS011;8825;48.086;16.426;2024-03-06T10:24:27;91.80;;;86.53;;
17414;SDS011;8825;48.086;16.426;2024-03-06T10:27:14;81.27;;;76.27;;
17414;SDS011;8825;48.086;16.426;2024-03-06T10:29:44;101.40;;;95.80;;
17414;SDS011;8825;48.086;16.426;2024-03-06T10:32:15;104.43;;;98.80;;
17414;SDS011;8825;48.086;16.426;2024-03-06T10:34:44;100.87;;;95.30;;
17414;SDS011;8825;48.086;16.426;2024-03-06T10:37:12;124.50;;;118.27;;
17414;SDS011;8825;48.086;16.426;2024-03-06T10:39:41;100.83;;;95.23;;
17414;SDS011;8825;48.086;16.426;2024-03-06T10:42:10;117.27;;;111.03;;
17414;SDS011;8825;48.086;16.426;2024-03-06T10:44:41;96.93;;;91.73;;
17414;SDS011;8825;48.086;16.426;2024-03-06T10:47:10;100.20;;;94.93;;
17414;SDS011;8825;48.086;16.426;2024-03-06T10:49:38;99.00;;;93.80;;
17414;SDS011;8825;48.086;16.426;2024-03-06T10:52:08;112.40;;;106.63;;
17414;SDS011;8825;48.086;16.426;2024-03-06T10:54:36;117.90;;;111.93;;
17414;SDS011;8825;48.086;16.426;2024-03-06T10:57:07;137.80;;;131.60;;
17414;SDS011;8825;48.086;16.426;2024-03-06T10:59:36;126.83;;;120.83;;
17414;SDS011;8825;48.086;16.426;2024-03-06T11:02:05;148.40;;;141.53;;
17414;SDS011;8825;48.086;16.426;2024-03-06T11:04:34;142.23;;;135.17;;
17414;SDS011;8825;48.086;16.426;2024-03-06T11:07:03;133.27;;;127.03;;
17414;SDS011;8825;48.086;16.426;2024-03-06T11:09:34;106.97;;;101.60;;
17414;SDS011;8825;48.086;16.426;2024-03-06T11:12:05;145.10;;;138.10;;
17414;SDS011;8825;48.086;16.426;2024-03-06T11:14:33;127.93;;;121.63;;
17414;SDS011;8825;48.086;16.426;2024-03-06T11:17:09;96.47;;;91.50;;
17414;SDS011;8825;48.086;16.426;2024-03-06T11:28:18;176.50;;;168.37;;
17414;SDS011;8825;48.086;16.426;2024-03-06T11:30:55;81.70;;;77.20;;
17414;SDS011;8825;48.086;16.426;2024-03-06T11:33:17;102.00;;;96.80;;
17414;SDS011;8825;48.086;16.426;2024-03-06T11:38:55;119.50;;;113.57;;
17414;SDS011;8825;48.086;16.426;2024-03-06T11:41:30;130.00;;;123.43;;
17414;SDS011;8825;48.086;16.426;2024-03-06T11:43:59;121.67;;;115.77;;
17414;SDS011;8825;48.086;16.426;2024-03-06T11:46:46;119.50;;;113.60;;
17414;SDS011;8825;48.086;16.426;2024-03-06T11:49:15;127.80;;;121.70;;
17414;SDS011;8825;48.086;16.426;2024-03-06T11:51:47;167.77;;;160.10;;
17414;SDS011;8825;48.086;16.426;2024-03-06T11:54:15;123.07;;;117.13;;
17414;SDS011;8825;48.086;16.426;2024-03-06T11:56:45;155.20;;;147.80;;
17414;SDS011;8825;48.086;16.426;2024-03-06T11:59:13;120.93;;;115.13;;
17414;SDS011;8825;48.086;16.426;2024-03-06T12:01:40;169.37;;;161.60;;
17414;SDS011;8825;48.086;16.426;2024-03-06T12:04:08;133.90;;;127.33;;
17414;SDS011;8825;48.086;16.426;2024-03-06T12:06:37;107.67;;;102.07;;
17414;SDS011;8825;48.086;16.426;2024-03-06T12:09:05;162.73;;;155.40;;
17414;SDS011;8825;48.086;16.426;2024-03-06T12:11:35;153.70;;;146.60;;
17414;SDS011;8825;48.086;16.426;2024-03-06T12:14:03;160.40;;;153.00;;
17414;SDS011;8825;48.086;16.426;2024-03-06T12:16:31;131.63;;;125.37;;
17414;SDS011;8825;48.086;16.426;2024-03-06T12:18:59;140.03;;;133.00;;
17414;SDS011;8825;48.086;16.426;2024-03-06T12:21:32;151.10;;;144.07;;
17414;SDS011;8825;48.086;16.426;2024-03-06T12:24:04;95.83;;;90.90;;
17414;SDS011;8825;48.086;16.426;2024-03-06T12:26:33;152.23;;;144.70;;
17414;SDS011;8825;48.086;16.426;2024-03-06T12:29:07;185.90;;;177.40;;
17414;SDS011;8825;48.086;16.426;2024-03-06T12:31:36;165.10;;;157.43;;
17414;SDS011;8825;48.086;16.426;2024-03-06T12:34:06;194.97;;;185.70;;
17414;SDS011;8825;48.086;16.426;2024-03-06T12:36:35;170.83;;;162.80;;
17414;SDS011;8825;48.086;16.426;2024-03-06T12:39:03;161.57;;;153.97;;
17414;SDS011;8825;48.086;16.426;2024-03-06T12:41:33;134.43;;;127.90;;
17414;SDS011;8825;48.086;16.426;2024-03-06T12:44:00;119.50;;;113.63;;
17414;SDS011;8825;48.086;16.426;2024-03-06T12:46:29;111.43;;;105.50;;
17414;SDS011;8825;48.086;16.426;2024-03-06T12:48:56;152.53;;;145.17;;
17414;SDS011;8825;48.086;16.426;2024-03-06T12:51:24;109.50;;;103.77;;
17414;SDS011;8825;48.086;16.426;2024-03-06T12:53:51;155.93;;;148.47;;
17414;SDS011;8825;48.086;16.426;2024-03-06T12:56:19;130.00;;;123.60;;
17414;SDS011;8825;48.086;16.426;2024-03-06T12:58:46;133.97;;;127.17;;
17414;SDS011;8825;48.086;16.426;2024-03-06T13:01:14;108.73;;;103.23;;
17414;SDS011;8825;48.086;16.426;2024-03-06T13:03:41;111.13;;;105.43;;
17414;SDS011;8825;48.086;16.426;2024-03-06T13:06:09;140.93;;;133.93;;
17414;SDS011;8825;48.086;16.426;2024-03-06T13:08:37;131.70;;;125.23;;
17414;SDS011;8825;48.086;16.426;2024-03-06T13:11:04;117.83;;;111.87;;
17414;SDS011;8825;48.086;16.426;2024-03-06T13:13:32;129.27;;;122.77;;
17414;SDS011;8825;48.086;16.426;2024-03-06T13:16:00;101.13;;;95.43;;
17414;SDS011;8825;48.086;16.426;2024-03-06T13:18:27;117.63;;;111.50;;
17414;SDS011;8825;48.086;16.426;2024-03-06T13:20:55;106.30;;;100.37;;
17414;SDS011;8825;48.086;16.426;2024-03-06T13:23:24;115.63;;;109.53;;
17414;SDS011;8825;48.086;16.426;2024-03-06T13:25:51;104.77;;;99.20;;
17414;SDS011;8825;48.086;16.426;2024-03-06T13:28:19;106.17;;;100.40;;
17414;SDS011;8825;48.086;16.426;2024-03-06T13:30:46;89.63;;;84.47;;
17414;SDS011;8825;48.086;16.426;2024-03-06T13:33:16;69.13;;;64.97;;
17414;SDS011;8825;48.086;16.426;2024-03-06T13:35:43;81.43;;;76.77;;
17414;SDS011;8825;48.086;16.426;2024-03-06T13:38:11;133.03;;;126.77;;
17414;SDS011;8825;48.086;16.426;2024-03-06T13:40:38;98.83;;;93.80;;
17414;SDS011;8825;48.086;16.426;2024-03-06T13:43:06;81.77;;;77.07;;
17414;SDS011;8825;48.086;16.426;2024-03-06T13:45:33;78.83;;;74.47;;
17414;SDS011;8825;48.086;16.426;2024-03-06T13:48:03;64.07;;;60.23;;
17414;SDS011;8825;48.086;16.426;2024-03-06T13:50:33;61.50;;;57.60;;
17414;SDS011;8825;48.086;16.426;2024-03-06T13:53:00;67.13;;;62.83;;
17414;SDS011;8825;48.086;16.426;2024-03-06T13:55:28;78.13;;;73.63;;
17414;SDS011;8825;48.086;16.426;2024-03-06T13:57:57;49.33;;;45.53;;
17414;SDS011;8825;48.086;16.426;2024-03-06T14:00:24;58.57;;;54.63;;
17414;SDS011;8825;48.086;16.426;2024-03-06T14:02:52;64.40;;;60.30;;
17414;SDS011;8825;48.086;16.426;2024-03-06T14:05:19;85.07;;;80.33;;
17414;SDS011;8825;48.086;16.426;2024-03-06T14:07:49;59.50;;;55.57;;
17414;SDS011;8825;48.086;16.426;2024-03-06T14:10:17;57.73;;;54.03;;
17414;SDS011;8825;48.086;16.426;2024-03-06T14:12:46;47.13;;;43.93;;
17414;SDS011;8825;48.086;16.426;2024-03-06T14:15:15;61.07;;;57.07;;
17414;SDS011;8825;48.086;16.426;2024-03-06T14:17:44;91.50;;;86.50;;
17414;SDS011;8825;48.086;16.426;2024-03-06T14:20:12;76.30;;;71.73;;
17414;SDS011;8825;48.086;16.426;2024-03-06T14:22:41;122.33;;;116.20;;
17414;SDS011;8825;48.086;16.426;2024-03-06T14:25:09;96.20;;;90.83;;
17414;SDS011;8825;48.086;16.426;2024-03-06T14:27:37;61.53;;;57.57;;
17414;SDS011;8825;48.086;16.426;2024-03-06T14:30:07;80.23;;;75.53;;
17414;SDS011;8825;48.086;16.426;2024-03-06T14:32:34;70.73;;;66.17;;
17414;SDS011;8825;48.086;16.426;2024-03-06T14:37:42;86.83;;;81.97;;